createdAt,value
2018-05-04T00:01:33.941Z,4.10
2018-05-04T00:04:01.511Z,3.97
2018-05-04T00:06:29.072Z,4.50
2018-05-04T00:08:56.652Z,3.07
2018-05-04T00:11:24.206Z,4.30
2018-05-04T00:13:51.930Z,3.10
2018-05-04T00:16:20.245Z,3.23
2018-05-04T00:18:47.792Z,3.40
2018-05-04T00:21:15.366Z,3.47
2018-05-04T00:23:42.913Z,3.73
2018-05-04T00:26:10.490Z,3.63
2018-05-04T00:28:38.039Z,4.10
2018-05-04T00:31:05.609Z,4.10
2018-05-04T00:33:33.158Z,3.67
2018-05-04T00:36:00.724Z,4.07
2018-05-04T00:38:28.275Z,4.00
2018-05-04T00:40:55.857Z,3.30
2018-05-04T00:43:23.405Z,4.07
2018-05-04T00:45:50.981Z,4.43
2018-05-04T00:48:18.534Z,4.50
2018-05-04T00:50:46.110Z,3.73
2018-05-04T00:53:13.653Z,4.27
2018-05-04T00:55:41.229Z,4.27
2018-05-04T00:58:08.813Z,3.00
2018-05-04T01:00:36.395Z,3.60
2018-05-04T01:03:03.946Z,4.07
2018-05-04T01:05:31.515Z,4.37
2018-05-04T01:07:59.072Z,3.47
2018-05-04T01:10:26.650Z,4.10
2018-05-04T01:12:54.209Z,4.53
2018-05-04T01:15:21.939Z,3.70
2018-05-04T01:17:49.485Z,3.37
2018-05-04T01:20:17.825Z,3.50
2018-05-04T01:22:46.226Z,3.60
2018-05-04T01:25:13.805Z,4.30
2018-05-04T01:27:41.348Z,4.00
2018-05-04T01:30:09.695Z,3.80
2018-05-04T01:32:37.310Z,4.33
2018-05-04T01:35:04.865Z,3.60
2018-05-04T01:37:32.437Z,4.40
2018-05-04T01:39:59.990Z,3.83
2018-05-04T01:42:27.582Z,3.70
2018-05-04T01:44:55.137Z,4.13
2018-05-04T01:47:22.711Z,4.23
2018-05-04T01:49:50.253Z,4.40
2018-05-04T01:52:17.885Z,4.73
2018-05-04T01:54:45.428Z,3.93
2018-05-04T01:57:13.006Z,4.67
2018-05-04T01:59:40.555Z,4.80
2018-05-04T02:02:08.129Z,4.47
2018-05-04T02:04:36.515Z,4.53
2018-05-04T02:07:04.085Z,4.30
2018-05-04T02:09:31.633Z,4.40
2018-05-04T02:11:59.207Z,4.60
2018-05-04T02:14:26.751Z,4.70
2018-05-04T02:16:54.324Z,5.37
2018-05-04T02:19:21.885Z,4.60
2018-05-04T02:21:49.452Z,4.40
2018-05-04T02:24:17.002Z,5.50
2018-05-04T02:26:44.587Z,5.17
2018-05-04T02:29:12.138Z,4.40
2018-05-04T02:31:39.709Z,5.30
2018-05-04T02:34:07.262Z,4.40
2018-05-04T02:36:34.817Z,4.70
2018-05-04T02:39:02.417Z,5.83
2018-05-04T02:41:29.966Z,5.57
2018-05-04T02:43:58.305Z,5.10
2018-05-04T02:46:25.861Z,5.20
2018-05-04T02:48:53.470Z,5.43
2018-05-04T02:51:21.566Z,5.30
2018-05-04T02:53:49.154Z,4.90
2018-05-04T02:56:16.702Z,5.07
2018-05-04T02:58:44.272Z,5.40
2018-05-04T03:01:11.845Z,5.20
2018-05-04T03:03:39.422Z,5.10
2018-05-04T03:06:07.736Z,5.23
2018-05-04T03:08:35.314Z,5.10
2018-05-04T03:11:02.868Z,5.13
2018-05-04T03:13:30.454Z,9.63
2018-05-04T03:15:58.009Z,6.70
2018-05-04T03:18:25.581Z,5.37
2018-05-04T03:20:53.134Z,4.90
2018-05-04T03:23:20.700Z,5.13
2018-05-04T03:25:49.021Z,6.00
2018-05-04T03:28:16.589Z,6.67
2018-05-04T03:30:44.170Z,6.07
2018-05-04T03:33:11.749Z,5.90
2018-05-04T03:35:39.292Z,5.80
2018-05-04T03:38:07.179Z,9.80
2018-05-04T03:40:34.737Z,13.97
2018-05-04T03:43:03.093Z,10.57
2018-05-04T03:45:30.638Z,5.87
2018-05-04T03:47:58.201Z,8.77
2018-05-04T03:50:25.773Z,5.70
2018-05-04T03:52:53.498Z,7.60
2018-05-04T03:55:21.075Z,8.90
2018-05-04T03:58:00.426Z,9.23
2018-05-04T04:00:40.310Z,12.20
2018-05-04T04:03:19.786Z,6.33
2018-05-04T04:05:47.357Z,4.67
2018-05-04T04:08:14.905Z,5.00
2018-05-04T04:10:42.480Z,6.17
2018-05-04T04:13:10.036Z,7.47
2018-05-04T04:15:37.612Z,5.10
2018-05-04T04:18:05.243Z,5.13
2018-05-04T04:20:32.754Z,4.40
2018-05-04T04:23:01.066Z,4.40
2018-05-04T04:25:28.638Z,4.63
2018-05-04T04:27:56.190Z,5.13
2018-05-04T04:30:23.761Z,4.50
2018-05-04T04:32:52.072Z,5.53
2018-05-04T04:35:19.660Z,6.60
2018-05-04T04:37:47.209Z,5.50
2018-05-04T04:40:15.553Z,5.83
2018-05-04T04:42:43.097Z,5.97
2018-05-04T04:45:10.678Z,6.03
2018-05-04T04:47:38.219Z,6.33
2018-05-04T04:50:05.788Z,11.63
2018-05-04T04:52:33.339Z,9.20
2018-05-04T04:55:00.913Z,6.10
2018-05-04T04:57:28.453Z,6.87
2018-05-04T04:59:56.029Z,7.57
2018-05-04T05:02:23.579Z,6.90
2018-05-04T05:04:51.135Z,7.67
2018-05-04T05:07:18.711Z,7.23
2018-05-04T05:09:47.033Z,7.80
2018-05-04T05:12:14.610Z,6.60
2018-05-04T05:14:42.193Z,7.70
2018-05-04T05:17:09.769Z,6.60
2018-05-04T05:19:38.086Z,7.30
2018-05-04T05:22:05.683Z,6.93
2018-05-04T05:24:33.239Z,6.13
2018-05-04T05:27:00.817Z,7.77
2018-05-04T05:29:28.425Z,6.83
2018-05-04T05:31:56.001Z,7.20
2018-05-04T05:34:23.544Z,6.33
2018-05-04T05:36:51.121Z,6.50
2018-05-04T05:39:18.666Z,6.70
2018-05-04T05:41:46.245Z,6.80
2018-05-04T05:44:14.377Z,5.90
2018-05-04T05:46:41.960Z,5.60
2018-05-04T05:49:09.510Z,5.30
2018-05-04T05:51:37.093Z,4.70
2018-05-04T05:54:04.649Z,4.47
2018-05-04T05:56:32.985Z,5.20
2018-05-04T05:59:01.154Z,4.30
2018-05-04T06:01:28.728Z,4.67
2018-05-04T06:03:56.288Z,4.60
2018-05-04T06:06:23.866Z,3.70
2018-05-04T06:08:51.422Z,4.53
2018-05-04T06:11:19.010Z,4.00
2018-05-04T06:13:46.557Z,3.47
2018-05-04T06:16:24.972Z,4.00
2018-05-04T06:18:53.320Z,4.47
2018-05-04T06:21:29.600Z,3.00
2018-05-04T06:24:01.952Z,3.67
2018-05-04T06:26:42.738Z,3.20
2018-05-04T06:29:19.188Z,3.67
2018-05-04T06:31:49.167Z,3.37
2018-05-04T06:34:21.467Z,3.37
2018-05-04T06:36:49.952Z,3.57
2018-05-04T06:39:26.742Z,3.70
2018-05-04T06:41:55.085Z,3.20
2018-05-04T06:44:29.831Z,3.60
2018-05-04T06:46:58.780Z,3.30
2018-05-04T06:49:29.732Z,3.50
2018-05-04T06:52:06.178Z,2.93
2018-05-04T06:54:38.806Z,3.17
2018-05-04T06:57:07.889Z,3.13
2018-05-04T06:59:35.446Z,3.83
2018-05-04T07:02:03.025Z,3.83
2018-05-04T07:04:34.809Z,3.07
2018-05-04T07:07:02.426Z,2.93
2018-05-04T07:12:11.631Z,3.10
2018-05-04T07:14:42.840Z,2.97
2018-05-04T07:17:10.382Z,2.40
2018-05-04T07:19:44.231Z,3.57
2018-05-04T07:22:11.852Z,4.43
2018-05-04T07:24:39.374Z,3.07
2018-05-04T07:27:06.925Z,3.10
2018-05-04T07:29:35.260Z,3.93
2018-05-04T07:32:03.159Z,3.30
2018-05-04T07:34:30.747Z,3.83
2018-05-04T07:36:58.297Z,3.77
2018-05-04T07:39:26.632Z,3.60
2018-05-04T07:41:54.190Z,3.40
2018-05-04T07:44:21.765Z,4.20
2018-05-04T07:46:49.317Z,4.73
2018-05-04T07:49:16.889Z,3.73
2018-05-04T07:51:44.433Z,3.80
2018-05-04T07:54:11.999Z,3.50
2018-05-04T07:56:39.550Z,3.63
2018-05-04T07:59:07.127Z,4.00
2018-05-04T08:01:34.676Z,3.13
2018-05-04T08:04:02.249Z,4.60
2018-05-04T08:06:29.805Z,3.70
2018-05-04T08:08:57.382Z,3.67
2018-05-04T08:11:25.697Z,3.73
2018-05-04T08:13:53.242Z,3.83
2018-05-04T08:16:20.819Z,3.37
2018-05-04T08:18:48.369Z,4.00
2018-05-04T08:21:15.933Z,3.70
2018-05-04T08:23:43.493Z,3.37
2018-05-04T08:26:11.837Z,4.30
2018-05-04T08:28:39.394Z,3.50
2018-05-04T08:31:06.974Z,4.57
2018-05-04T08:33:34.536Z,4.50
2018-05-04T08:36:02.106Z,3.80
2018-05-04T08:38:29.666Z,3.97
2018-05-04T08:40:57.234Z,4.20
2018-05-04T08:43:24.785Z,3.90
2018-05-04T08:45:52.358Z,3.80
2018-05-04T08:48:19.925Z,4.43
2018-05-04T08:50:47.506Z,3.90
2018-05-04T08:53:15.826Z,4.57
2018-05-04T08:55:43.397Z,4.60
2018-05-04T08:58:10.945Z,3.90
2018-05-04T09:00:38.522Z,4.23
2018-05-04T09:03:06.082Z,4.70
2018-05-04T09:05:33.718Z,4.17
2018-05-04T09:08:01.237Z,4.90
2018-05-04T09:10:29.572Z,3.87
2018-05-04T09:12:57.123Z,3.57
2018-05-04T09:15:24.701Z,3.73
2018-05-04T09:17:52.245Z,4.00
2018-05-04T09:20:19.835Z,3.90
2018-05-04T09:22:47.518Z,4.80
2018-05-04T09:25:15.915Z,4.43
2018-05-04T09:27:43.425Z,4.70
2018-05-04T09:30:11.006Z,4.70
2018-05-04T09:32:38.586Z,3.70
2018-05-04T09:35:06.128Z,3.90
2018-05-04T09:37:33.697Z,4.10
2018-05-04T09:40:01.267Z,4.40
2018-05-04T09:42:28.842Z,4.43
2018-05-04T09:44:56.384Z,3.80
2018-05-04T09:47:23.957Z,4.17
2018-05-04T09:49:51.511Z,3.67
2018-05-04T09:52:19.085Z,4.70
2018-05-04T09:54:46.633Z,4.10
2018-05-04T09:57:14.214Z,4.37
2018-05-04T09:59:41.769Z,4.53
2018-05-04T10:02:09.344Z,4.37
2018-05-04T10:04:36.925Z,4.10
2018-05-04T10:07:04.497Z,3.70
2018-05-04T10:09:32.821Z,3.67
2018-05-04T10:12:00.388Z,3.97
2018-05-04T10:14:27.962Z,4.37
2018-05-04T10:16:55.533Z,4.27
2018-05-04T10:19:23.854Z,4.17
2018-05-04T10:21:51.509Z,4.17
2018-05-04T10:24:19.029Z,4.00
2018-05-04T10:26:46.618Z,5.30
2018-05-04T10:29:14.177Z,4.23
2018-05-04T10:31:41.724Z,4.30
2018-05-04T10:34:09.295Z,5.10
2018-05-04T10:36:36.841Z,4.30
2018-05-04T10:39:04.477Z,4.73
2018-05-04T10:41:31.994Z,6.00
2018-05-04T10:43:59.590Z,5.40
2018-05-04T10:46:27.153Z,5.13
2018-05-04T10:48:54.730Z,5.87
2018-05-04T10:51:23.065Z,5.90
2018-05-04T10:53:50.655Z,6.27
2018-05-04T10:56:18.209Z,5.10
2018-05-04T10:58:45.790Z,5.83
2018-05-04T11:01:14.102Z,5.80
2018-05-04T11:03:41.691Z,5.53
2018-05-04T11:06:09.257Z,4.90
2018-05-04T11:08:36.830Z,5.67
2018-05-04T11:11:04.382Z,5.60
2018-05-04T11:13:31.966Z,6.17
2018-05-04T11:15:59.523Z,4.87
2018-05-04T11:18:27.102Z,6.57
2018-05-04T11:20:54.648Z,7.10
2018-05-04T11:23:22.225Z,6.27
2018-05-04T11:25:49.774Z,5.87
2018-05-04T11:28:17.351Z,6.50
2018-05-04T11:30:44.905Z,5.80
2018-05-04T11:33:12.477Z,5.40
2018-05-04T11:35:40.049Z,5.60
2018-05-04T11:38:07.659Z,6.70
2018-05-04T11:40:35.245Z,7.17
2018-05-04T11:43:02.801Z,7.30
2018-05-04T11:45:30.368Z,5.80
2018-05-04T11:47:57.964Z,5.90
2018-05-04T11:50:25.561Z,5.87
2018-05-04T11:52:53.114Z,5.93
2018-05-04T11:55:20.792Z,6.40
2018-05-04T11:57:48.322Z,6.43
2018-05-04T12:00:16.681Z,6.23
2018-05-04T12:02:44.997Z,6.97
2018-05-04T12:05:12.574Z,6.77
2018-05-04T12:07:40.139Z,6.00
2018-05-04T12:10:08.489Z,6.43
2018-05-04T12:12:36.931Z,6.77
2018-05-04T12:15:04.526Z,6.47
2018-05-04T12:17:32.086Z,5.63
2018-05-04T12:19:59.657Z,6.40
2018-05-04T12:22:27.224Z,6.40
2018-05-04T12:24:54.764Z,6.10
2018-05-04T12:27:22.341Z,6.37
2018-05-04T12:29:49.884Z,5.60
2018-05-04T12:32:17.456Z,6.10
2018-05-04T12:34:45.019Z,7.10
2018-05-04T12:37:12.665Z,6.03
2018-05-04T12:39:40.168Z,6.50
2018-05-04T12:42:07.746Z,6.50
2018-05-04T12:44:36.065Z,7.70
2018-05-04T12:47:03.715Z,5.93
2018-05-04T12:49:31.208Z,6.60
2018-05-04T12:51:58.796Z,5.57
2018-05-04T12:54:27.122Z,6.90
2018-05-04T12:56:54.698Z,7.20
2018-05-04T12:59:22.249Z,7.10
2018-05-04T13:01:49.834Z,6.87
2018-05-04T13:04:17.394Z,6.87
2018-05-04T13:06:44.980Z,6.87
2018-05-04T13:09:12.535Z,7.20
2018-05-04T13:11:40.890Z,7.30
2018-05-04T13:14:08.450Z,7.73
2018-05-04T13:16:36.037Z,7.23
2018-05-04T13:19:03.687Z,6.37
2018-05-04T13:21:31.243Z,6.70
2018-05-04T13:23:58.820Z,7.47
2018-05-04T13:26:27.139Z,7.20
2018-05-04T13:28:54.718Z,7.00
2018-05-04T13:31:23.109Z,7.20
2018-05-04T13:33:50.705Z,5.90
2018-05-04T13:36:19.247Z,7.33
2018-05-04T13:38:48.627Z,6.43
2018-05-04T13:41:17.667Z,6.40
2018-05-04T13:43:45.970Z,8.63
2018-05-04T13:46:14.053Z,7.00
2018-05-04T13:48:42.318Z,7.20
2018-05-04T13:51:11.997Z,5.50
2018-05-04T13:53:41.384Z,5.43
2018-05-04T13:56:10.315Z,7.50
2018-05-04T13:58:39.479Z,7.10
2018-05-04T14:01:08.898Z,7.03
2018-05-04T14:03:37.116Z,7.57
2018-05-04T14:06:06.511Z,6.70
2018-05-04T14:08:34.858Z,6.80
2018-05-04T14:11:04.357Z,6.40
2018-05-04T14:13:33.013Z,6.03
2018-05-04T14:16:01.426Z,7.37
2018-05-04T14:18:30.844Z,6.70
2018-05-04T14:20:59.060Z,6.30
2018-05-04T14:23:27.860Z,6.10
2018-05-04T14:25:56.305Z,5.80
2018-05-04T14:28:24.532Z,6.70
2018-05-04T14:30:53.161Z,7.67
2018-05-04T14:33:22.368Z,6.60
2018-05-04T14:35:50.792Z,6.13
2018-05-04T14:38:18.757Z,5.80
2018-05-04T14:40:48.929Z,6.60
2018-05-04T14:43:17.094Z,6.20
2018-05-04T14:45:45.765Z,6.50
2018-05-04T14:48:14.024Z,6.20
2018-05-04T14:50:42.849Z,7.40
2018-05-04T14:53:10.959Z,6.70
2018-05-04T14:55:40.116Z,6.20
2018-05-04T14:58:08.330Z,6.73
2018-05-04T15:00:36.711Z,5.73
2018-05-04T15:03:05.007Z,5.17
2018-05-04T15:05:33.686Z,6.53
2018-05-04T15:08:03.241Z,6.83
2018-05-04T15:10:32.973Z,5.70
2018-05-04T15:13:01.501Z,7.37
2018-05-04T15:15:29.981Z,8.33
2018-05-04T15:17:58.482Z,5.50
2018-05-04T15:20:26.552Z,7.07
2018-05-04T15:22:55.121Z,6.70
2018-05-04T15:25:23.802Z,5.60
2018-05-04T15:27:52.917Z,5.37
2018-05-04T15:30:20.554Z,6.50
2018-05-04T15:32:48.104Z,6.83
2018-05-04T15:35:15.683Z,8.00
2018-05-04T15:37:43.232Z,10.50
2018-05-04T15:40:10.805Z,6.20
2018-05-04T15:42:39.125Z,5.50
2018-05-04T15:45:06.706Z,6.17
2018-05-04T15:47:34.249Z,6.73
2018-05-04T15:50:08.201Z,5.50
2018-05-04T15:52:35.751Z,6.20
2018-05-04T15:55:03.392Z,6.90
2018-05-04T15:57:31.690Z,5.60
2018-05-04T15:59:59.273Z,4.67
2018-05-04T16:02:26.844Z,5.93
2018-05-04T16:04:54.388Z,5.57
2018-05-04T16:07:21.974Z,6.10
2018-05-04T16:09:50.524Z,5.73
2018-05-04T16:12:18.101Z,5.53
2018-05-04T16:14:45.653Z,5.10
2018-05-04T16:17:14.006Z,5.50
2018-05-04T16:19:41.569Z,5.03
2018-05-04T16:22:09.147Z,5.10
2018-05-04T16:24:36.697Z,5.30
2018-05-04T16:27:05.032Z,5.03
2018-05-04T16:29:32.573Z,4.47
2018-05-04T16:32:00.154Z,5.10
2018-05-04T16:34:27.705Z,4.90
2018-05-04T16:36:56.048Z,5.77
2018-05-04T16:39:23.610Z,5.10
2018-05-04T16:41:51.191Z,5.90
2018-05-04T16:44:19.510Z,4.73
2018-05-04T16:47:03.793Z,5.50
2018-05-04T16:49:31.341Z,5.07
2018-05-04T16:51:58.911Z,5.33
2018-05-04T16:54:26.456Z,5.07
2018-05-04T16:56:54.024Z,5.20
2018-05-04T16:59:21.580Z,5.60
2018-05-04T17:01:49.155Z,4.37
2018-05-04T17:04:17.482Z,5.67
2018-05-04T17:06:45.057Z,4.70
2018-05-04T17:09:12.633Z,4.70
2018-05-04T17:11:40.209Z,4.90
2018-05-04T17:14:07.757Z,5.10
2018-05-04T17:16:35.310Z,4.03
2018-05-04T17:19:02.885Z,4.73
2018-05-04T17:21:30.440Z,4.43
2018-05-04T17:23:58.017Z,3.83
2018-05-04T17:26:25.570Z,4.63
2018-05-04T17:28:53.157Z,5.03
2018-05-04T17:31:20.710Z,4.07
2018-05-04T17:33:48.281Z,4.27
2018-05-04T17:36:15.825Z,4.20
2018-05-04T17:38:43.399Z,3.73
2018-05-04T17:41:10.954Z,4.47
2018-05-04T17:43:38.525Z,4.50
2018-05-04T17:46:06.124Z,4.53
2018-05-04T17:48:33.689Z,4.20
2018-05-04T17:51:01.246Z,4.60
2018-05-04T17:53:28.827Z,4.33
2018-05-04T17:55:56.377Z,5.37
2018-05-04T17:58:24.717Z,4.20
2018-05-04T18:00:52.260Z,4.73
2018-05-04T18:03:19.837Z,4.90
2018-05-04T18:05:47.756Z,4.77
2018-05-04T18:08:15.341Z,4.77
2018-05-04T18:10:42.890Z,4.23
2018-05-04T18:13:10.469Z,4.43
2018-05-04T18:15:38.030Z,3.87
2018-05-04T18:18:05.595Z,4.77
2018-05-04T18:20:33.145Z,4.40
2018-05-04T18:23:00.709Z,4.13
2018-05-04T18:25:28.353Z,4.00
2018-05-04T18:27:55.937Z,4.10
2018-05-04T18:30:23.485Z,4.50
2018-05-04T18:32:51.072Z,4.73
2018-05-04T18:35:18.620Z,3.47
2018-05-04T18:37:47.678Z,4.03
2018-05-04T18:40:15.281Z,4.43
2018-05-04T18:42:43.789Z,3.77
2018-05-04T18:45:11.360Z,4.10
2018-05-04T18:47:38.913Z,4.10
2018-05-04T18:50:06.496Z,3.97
2018-05-04T18:52:34.036Z,3.37
2018-05-04T18:55:01.755Z,3.50
2018-05-04T18:57:29.308Z,4.30
2018-05-04T18:59:56.932Z,4.20
2018-05-04T19:02:30.045Z,4.40
2018-05-04T19:04:57.706Z,4.23
2018-05-04T19:07:25.248Z,4.40
2018-05-04T19:09:52.826Z,5.47
2018-05-04T19:12:20.430Z,5.00
2018-05-04T19:14:47.978Z,4.60
2018-05-04T19:17:15.533Z,4.27
2018-05-04T19:19:43.121Z,4.60
2018-05-04T19:22:10.673Z,4.57
2018-05-04T19:24:39.017Z,5.70
2018-05-04T19:27:06.569Z,5.80
2018-05-04T19:29:34.145Z,5.77
2018-05-04T19:32:01.706Z,3.97
2018-05-04T19:34:29.358Z,3.67
2018-05-04T19:36:56.846Z,3.47
2018-05-04T19:39:24.424Z,4.20
2018-05-04T19:41:51.978Z,4.20
2018-05-04T19:44:19.548Z,3.57
2018-05-04T19:46:47.102Z,3.80
2018-05-04T19:49:14.680Z,4.03
2018-05-04T19:51:42.236Z,3.70
2018-05-04T19:54:09.845Z,4.40
2018-05-04T19:56:37.398Z,6.70
2018-05-04T19:59:05.713Z,3.53
2018-05-04T20:01:33.294Z,3.60
2018-05-04T20:04:00.848Z,3.97
2018-05-04T20:06:28.425Z,5.50
2018-05-04T20:08:55.989Z,4.23
2018-05-04T20:11:23.570Z,4.40
2018-05-04T20:13:51.116Z,3.67
2018-05-04T20:16:18.697Z,4.00
2018-05-04T20:18:46.240Z,4.00
2018-05-04T20:21:13.817Z,4.07
2018-05-04T20:23:42.134Z,4.53
2018-05-04T20:26:09.710Z,4.00
2018-05-04T20:28:37.379Z,3.87
2018-05-04T20:31:04.948Z,3.60
2018-05-04T20:33:32.493Z,3.50
2018-05-04T20:36:00.065Z,5.03
2018-05-04T20:38:27.616Z,3.90
2018-05-04T20:40:55.186Z,5.30
2018-05-04T20:43:22.741Z,4.13
2018-05-04T20:45:51.093Z,3.67
2018-05-04T20:48:18.636Z,4.30
2018-05-04T20:50:46.215Z,3.87
2018-05-04T20:53:13.766Z,3.80
2018-05-04T20:55:41.341Z,3.53
2018-05-04T20:58:08.947Z,4.43
2018-05-04T21:00:36.489Z,3.83
2018-05-04T21:03:04.833Z,3.50
2018-05-04T21:05:32.393Z,4.77
2018-05-04T21:07:59.972Z,3.50
2018-05-04T21:10:27.517Z,4.20
2018-05-04T21:12:55.084Z,4.03
2018-05-04T21:15:22.648Z,3.67
2018-05-04T21:17:50.223Z,3.73
2018-05-04T21:20:18.543Z,3.67
2018-05-04T21:22:46.118Z,3.97
2018-05-04T21:25:13.680Z,3.67
2018-05-04T21:27:41.257Z,4.03
2018-05-04T21:30:08.811Z,4.10
2018-05-04T21:32:36.709Z,5.63
2018-05-04T21:35:05.026Z,4.00
2018-05-04T21:37:32.609Z,5.10
2018-05-04T21:40:00.156Z,4.80
2018-05-04T21:42:27.729Z,5.23
2018-05-04T21:44:55.302Z,4.00
2018-05-04T21:47:22.872Z,4.83
2018-05-04T21:49:51.189Z,5.13
2018-05-04T21:52:18.763Z,4.63
2018-05-04T21:54:46.312Z,4.30
2018-05-04T21:57:13.888Z,3.73
2018-05-04T21:59:41.449Z,3.90
2018-05-04T22:02:09.026Z,3.30
2018-05-04T22:04:37.359Z,3.53
2018-05-04T22:07:05.017Z,3.33
2018-05-04T22:09:32.556Z,3.20
2018-05-04T22:12:00.106Z,4.10
2018-05-04T22:14:27.684Z,4.80
2018-05-04T22:16:55.237Z,4.40
2018-05-04T22:19:22.811Z,3.43
2018-05-04T22:21:50.366Z,3.47
2018-05-04T22:24:17.941Z,3.03
2018-05-04T22:26:45.486Z,3.70
2018-05-04T22:29:13.056Z,3.43
2018-05-04T22:31:40.613Z,3.87
2018-05-04T22:34:08.180Z,4.30
2018-05-04T22:36:35.737Z,3.90
2018-05-04T22:39:03.394Z,4.17
2018-05-04T22:41:30.946Z,4.00
2018-05-04T22:43:58.521Z,3.50
2018-05-04T22:46:26.192Z,3.27
2018-05-04T22:48:53.774Z,3.60
2018-05-04T22:51:22.097Z,3.70
2018-05-04T22:53:49.669Z,3.40
2018-05-04T22:56:17.231Z,4.17
2018-05-04T22:58:44.810Z,4.20
2018-05-04T23:01:12.365Z,4.90
2018-05-04T23:03:39.940Z,3.30
2018-05-04T23:06:07.495Z,3.90
2018-05-04T23:08:35.069Z,3.80
2018-05-04T23:11:03.389Z,3.90
2018-05-04T23:13:30.977Z,4.10
2018-05-04T23:15:58.529Z,4.00
2018-05-04T23:18:26.085Z,3.43
2018-05-04T23:20:53.717Z,3.53
2018-05-04T23:23:21.264Z,4.07
2018-05-04T23:25:48.841Z,4.50
2018-05-04T23:28:16.386Z,3.70
2018-05-04T23:30:43.966Z,4.00
2018-05-04T23:33:11.511Z,3.53
2018-05-04T23:35:39.085Z,3.57
2018-05-04T23:38:06.642Z,3.43
2018-05-04T23:40:34.207Z,4.43
2018-05-04T23:43:01.757Z,3.93
2018-05-04T23:45:29.338Z,5.23
2018-05-04T23:47:56.930Z,4.90
2018-05-04T23:50:24.505Z,3.97
2018-05-04T23:52:52.160Z,4.43
2018-05-04T23:55:19.734Z,3.70
2018-05-04T23:57:47.285Z,4.13
